Field Station

The University of Mississippi

Weather from the Field Station

Mean temperature, relative humidity, rain fall and wind speed, and maximum wind speed (gust)

(under construction)

Date AM-PM Temp, °F RH, % Rain, in Wind, mph Max wind, mph
12/8/17 AM 37.5 45.5 0.0000 1.6 10.1
12/8/17 PM 31.4 58.5 0.0000 0.4 9.0
12/9/17 AM 27.4 76.0 0.0000 1.7 18.0
12/9/17 PM 36.2 64.8 0.0000 1.9 18.0
12/10/17 AM 29.7 81.4 0.0000 1.1 15.8
12/10/17 PM 45.4 51.4 0.0000 1.9 20.3
12/11/17 AM 39.3 77.0 0.0000 0.6 12.4
12/11/17 PM 58.0 37.6 0.0000 2.0 15.8
12/12/17 AM 46.0 54.5 0.0000 1.5 18.0
12/12/17 PM 39.2 61.8 0.0000 1.4 21.4
12/13/17 AM 31.2 75.9 0.0000 1.2 16.9
12/13/17 PM 52.8 34.7 0.0000 2.9 18.0
12/14/17 AM 39.7 70.9 0.0000 0.7 11.3
12/14/17 PM 43.1 60.1 0.0000 0.5 9.0
12/15/17 AM 29.7 87.1 0.0000 0.1 7.9
12/15/17 PM 35.0 73.4 0.0000 0.7 10.1
12/16/17 AM 34.7 78.3 0.0000 0.8 12.4
12/16/17 PM 47.1 54.6 0.0000 0.9 11.3
12/17/17 AM 42.5 83.4 0.0014 1.5 13.5
12/17/17 PM 47.4 97.4 0.0000 0.1 4.5
12/18/17 AM 48.3 98.9 0.0000 0.6 7.9